createdAt,value
2018-12-29T00:00:54.083Z,85.57
2018-12-29T00:03:22.514Z,87.10
2018-12-29T00:05:50.952Z,83.70
2018-12-29T00:08:19.422Z,97.70
2018-12-29T00:10:47.887Z,100.07
2018-12-29T00:13:16.374Z,94.57
2018-12-29T00:15:44.804Z,93.67
2018-12-29T00:18:13.246Z,79.53
2018-12-29T00:20:41.699Z,70.03
2018-12-29T00:23:10.137Z,75.13
2018-12-29T00:25:38.548Z,63.07
2018-12-29T00:28:07.071Z,81.10
2018-12-29T00:30:35.480Z,72.20
2018-12-29T00:33:03.940Z,73.50
2018-12-29T00:35:32.370Z,86.23
2018-12-29T00:38:00.762Z,91.43
2018-12-29T00:40:29.286Z,76.33
2018-12-29T00:42:57.804Z,73.43
2018-12-29T00:45:26.233Z,69.03
2018-12-29T00:47:54.665Z,71.57
2018-12-29T00:50:23.095Z,73.43
2018-12-29T00:52:51.528Z,62.97
2018-12-29T00:55:19.998Z,80.73
2018-12-29T00:57:48.477Z,89.20
2018-12-29T01:00:16.919Z,86.83
2018-12-29T01:02:45.405Z,87.27
2018-12-29T01:05:13.860Z,86.63
2018-12-29T01:07:42.277Z,108.77
2018-12-29T01:10:10.741Z,113.57
2018-12-29T01:12:39.169Z,135.80
2018-12-29T01:15:10.050Z,115.30
2018-12-29T01:17:37.705Z,145.33
2018-12-29T01:20:06.173Z,113.47
2018-12-29T01:22:34.602Z,112.57
2018-12-29T01:25:03.060Z,98.60
2018-12-29T01:27:31.531Z,86.90
2018-12-29T01:30:00.266Z,78.60
2018-12-29T01:32:28.694Z,90.87
2018-12-29T01:34:57.134Z,85.40
2018-12-29T01:37:25.581Z,88.90
2018-12-29T01:39:54.437Z,78.20
2018-12-29T01:42:22.867Z,77.77
2018-12-29T01:44:51.329Z,73.63
2018-12-29T01:47:19.737Z,79.37
2018-12-29T01:49:48.178Z,77.87
2018-12-29T01:52:16.677Z,64.10
2018-12-29T01:54:45.091Z,65.33
2018-12-29T01:57:13.558Z,69.07
2018-12-29T01:59:42.044Z,45.50
2018-12-29T02:02:10.433Z,61.07
2018-12-29T02:04:38.863Z,70.97
2018-12-29T02:07:07.301Z,74.37
2018-12-29T02:09:35.826Z,70.20
2018-12-29T02:12:04.266Z,72.47
2018-12-29T02:14:33.743Z,74.47
2018-12-29T02:17:02.154Z,70.80
2018-12-29T02:19:30.597Z,80.73
2018-12-29T02:21:59.507Z,63.07
2018-12-29T02:24:27.958Z,61.97
2018-12-29T02:26:56.789Z,64.57
2018-12-29T02:29:25.206Z,64.60
2018-12-29T02:31:53.708Z,71.43
2018-12-29T02:34:22.149Z,65.27
2018-12-29T02:36:50.590Z,77.30
2018-12-29T02:39:19.030Z,69.27
2018-12-29T02:41:47.470Z,60.93
2018-12-29T02:44:15.902Z,66.53
2018-12-29T02:46:44.362Z,58.70
2018-12-29T02:49:12.803Z,71.00
2018-12-29T02:51:41.282Z,74.53
2018-12-29T02:54:09.736Z,77.57
2018-12-29T02:56:38.157Z,68.20
2018-12-29T02:59:06.602Z,67.43
2018-12-29T03:01:35.067Z,85.63
2018-12-29T03:04:03.497Z,82.63
2018-12-29T03:06:31.909Z,67.30
2018-12-29T03:09:00.366Z,63.87
2018-12-29T03:11:28.816Z,74.60
2018-12-29T03:13:57.278Z,83.27
2018-12-29T03:16:25.760Z,75.00
2018-12-29T03:18:54.268Z,89.23
2018-12-29T03:21:22.713Z,70.40
2018-12-29T03:23:51.134Z,69.77
2018-12-29T03:26:19.582Z,65.33
2018-12-29T03:28:48.042Z,66.37
2018-12-29T03:31:16.550Z,61.00
2018-12-29T03:33:45.034Z,69.87
2018-12-29T03:36:13.476Z,57.93
2018-12-29T03:38:41.902Z,70.03
2018-12-29T03:41:10.320Z,69.43
2018-12-29T03:43:38.734Z,72.53
2018-12-29T03:46:07.157Z,63.57
2018-12-29T03:48:37.050Z,74.07
2018-12-29T03:51:05.418Z,74.67
2018-12-29T03:53:33.869Z,74.67
2018-12-29T03:56:02.357Z,85.07
2018-12-29T03:58:30.800Z,75.77
2018-12-29T04:01:00.932Z,106.10
2018-12-29T04:03:29.330Z,82.43
2018-12-29T04:05:57.770Z,90.03
2018-12-29T04:08:26.201Z,92.70
2018-12-29T04:10:54.733Z,87.37
2018-12-29T04:13:23.154Z,85.47
2018-12-29T04:15:57.982Z,90.53
2018-12-29T04:18:21.642Z,87.97
2018-12-29T04:20:50.094Z,106.47
2018-12-29T04:23:18.574Z,85.40
2018-12-29T04:25:47.037Z,79.63
2018-12-29T04:28:15.475Z,84.07
2018-12-29T04:30:43.934Z,77.60
2018-12-29T04:33:12.329Z,85.43
2018-12-29T04:35:40.766Z,78.17
2018-12-29T04:38:09.170Z,92.47
2018-12-29T04:40:37.638Z,64.00
2018-12-29T04:43:06.058Z,81.93
2018-12-29T04:45:34.503Z,82.53
2018-12-29T04:48:02.948Z,82.47
2018-12-29T04:50:31.389Z,70.67
2018-12-29T04:52:59.851Z,81.47
2018-12-29T04:55:28.310Z,72.00
2018-12-29T04:57:56.728Z,81.50
2018-12-29T05:00:25.165Z,78.90
2018-12-29T05:02:53.596Z,95.13
2018-12-29T05:05:22.034Z,82.33
2018-12-29T05:07:50.469Z,95.10
2018-12-29T05:10:18.904Z,86.23
2018-12-29T05:12:47.365Z,99.43
2018-12-29T05:15:15.828Z,87.67
2018-12-29T05:17:44.278Z,76.47
2018-12-29T05:20:12.750Z,90.77
2018-12-29T05:22:41.199Z,76.33
2018-12-29T05:25:09.698Z,80.83
2018-12-29T05:27:38.173Z,87.77
2018-12-29T05:30:06.641Z,73.60
2018-12-29T05:32:35.130Z,86.70
2018-12-29T05:35:03.570Z,93.80
2018-12-29T05:37:32.123Z,87.63
2018-12-29T05:40:00.535Z,86.30
2018-12-29T05:42:28.964Z,82.57
2018-12-29T05:44:59.175Z,84.57
2018-12-29T05:47:27.688Z,75.43
2018-12-29T05:49:56.094Z,85.57
2018-12-29T05:52:24.556Z,90.40
2018-12-29T05:54:53.006Z,81.70
2018-12-29T05:57:21.449Z,92.30
2018-12-29T05:59:49.858Z,81.23
2018-12-29T06:02:18.327Z,79.40
2018-12-29T06:04:46.750Z,78.00
2018-12-29T06:07:15.200Z,73.97
2018-12-29T06:09:43.641Z,84.07
2018-12-29T06:12:21.479Z,80.50
2018-12-29T06:14:49.929Z,76.60
2018-12-29T06:17:18.592Z,86.00
2018-12-29T06:19:47.074Z,75.47
2018-12-29T06:22:15.517Z,71.13
2018-12-29T06:24:43.944Z,71.23
2018-12-29T06:27:12.415Z,52.57
2018-12-29T06:29:40.845Z,71.73
2018-12-29T06:32:09.286Z,83.97
2018-12-29T06:34:37.693Z,81.37
2018-12-29T06:37:06.115Z,79.27
2018-12-29T06:39:34.556Z,66.63
2018-12-29T06:42:02.998Z,80.03
2018-12-29T06:44:31.420Z,83.70
2018-12-29T06:46:59.826Z,74.03
2018-12-29T06:49:28.386Z,85.27
2018-12-29T06:51:56.821Z,78.30
2018-12-29T06:54:25.309Z,70.60
2018-12-29T06:56:53.781Z,75.97
2018-12-29T06:59:22.246Z,73.57
2018-12-29T07:01:50.653Z,75.77
2018-12-29T07:04:19.069Z,66.40
2018-12-29T07:06:47.473Z,79.43
2018-12-29T07:09:15.893Z,80.50
2018-12-29T07:11:44.315Z,73.10
2018-12-29T07:14:12.747Z,73.50
2018-12-29T07:16:42.331Z,79.63
2018-12-29T07:19:11.032Z,85.57
2018-12-29T07:21:39.446Z,83.60
2018-12-29T07:24:07.929Z,66.60
2018-12-29T07:26:36.361Z,64.57
2018-12-29T07:29:04.798Z,46.13
2018-12-29T07:31:33.278Z,64.20
2018-12-29T07:34:01.720Z,70.93
2018-12-29T07:36:30.141Z,67.07
2018-12-29T07:38:58.598Z,57.83
2018-12-29T07:41:27.030Z,66.47
2018-12-29T07:43:55.483Z,57.87
2018-12-29T07:46:23.922Z,61.13
2018-12-29T07:48:59.614Z,55.33
2018-12-29T07:51:28.152Z,64.17
2018-12-29T07:53:57.843Z,52.37
2018-12-29T07:56:26.427Z,68.67
2018-12-29T07:58:54.865Z,62.17
2018-12-29T08:01:23.317Z,60.50
2018-12-29T08:03:51.753Z,61.00
2018-12-29T08:06:20.177Z,65.90
2018-12-29T08:08:48.647Z,58.97
2018-12-29T08:13:52.002Z,69.17
2018-12-29T08:16:20.437Z,62.33
2018-12-29T08:18:48.894Z,52.07
2018-12-29T08:21:18.763Z,82.27
2018-12-29T08:23:47.318Z,107.93
2018-12-29T08:26:15.742Z,64.07
2018-12-29T08:28:45.261Z,60.60
2018-12-29T08:31:13.821Z,56.67
2018-12-29T08:33:42.194Z,76.87
2018-12-29T08:36:10.643Z,84.63
2018-12-29T08:38:39.043Z,64.53
2018-12-29T08:41:07.455Z,60.67
2018-12-29T08:43:35.837Z,66.17
2018-12-29T08:46:04.276Z,84.00
2018-12-29T08:48:32.727Z,77.90
2018-12-29T08:51:01.134Z,64.70
2018-12-29T08:53:29.535Z,75.10
2018-12-29T08:55:57.987Z,72.10
2018-12-29T08:58:26.380Z,68.93
2018-12-29T09:00:54.830Z,69.03
2018-12-29T09:03:23.241Z,57.97
2018-12-29T09:05:51.678Z,45.63
2018-12-29T09:08:20.081Z,66.27
2018-12-29T09:10:48.530Z,63.50
2018-12-29T09:13:16.935Z,56.90
2018-12-29T09:15:45.394Z,68.37
2018-12-29T09:18:13.786Z,57.50
2018-12-29T09:20:42.225Z,66.33
2018-12-29T09:23:10.625Z,50.87
2018-12-29T09:25:39.115Z,63.70
2018-12-29T09:28:07.534Z,67.23
2018-12-29T09:30:36.427Z,63.50
2018-12-29T09:33:04.806Z,52.07
2018-12-29T09:35:33.217Z,60.07
2018-12-29T09:38:01.619Z,60.47
2018-12-29T09:40:30.027Z,46.50
2018-12-29T09:42:58.467Z,58.30
2018-12-29T09:45:26.901Z,55.60
2018-12-29T09:47:55.308Z,54.97
2018-12-29T09:50:23.729Z,60.40
2018-12-29T09:52:52.170Z,54.50
2018-12-29T09:55:20.585Z,52.83
2018-12-29T09:57:49.015Z,62.00
2018-12-29T10:00:17.402Z,60.93
2018-12-29T10:02:45.826Z,50.57
2018-12-29T10:05:14.234Z,56.70
2018-12-29T10:07:42.657Z,49.50
2018-12-29T10:10:11.077Z,45.50
2018-12-29T10:12:39.488Z,55.90
2018-12-29T10:15:07.898Z,49.03
2018-12-29T10:17:36.346Z,59.73
2018-12-29T10:20:05.248Z,65.43
2018-12-29T10:22:33.721Z,59.83
2018-12-29T10:25:02.141Z,56.73
2018-12-29T10:27:30.539Z,69.93
2018-12-29T10:29:58.929Z,66.30
2018-12-29T10:32:27.345Z,52.63
2018-12-29T10:34:55.753Z,81.77
2018-12-29T10:37:24.174Z,45.80
2018-12-29T10:39:52.561Z,91.10
2018-12-29T10:42:20.983Z,70.27
2018-12-29T10:44:49.383Z,64.93
2018-12-29T10:47:17.814Z,70.43
2018-12-29T10:49:46.215Z,74.53
2018-12-29T10:52:14.666Z,55.07
2018-12-29T10:54:43.074Z,53.10
2018-12-29T10:57:11.506Z,56.80
2018-12-29T10:59:39.915Z,60.23
2018-12-29T11:02:08.350Z,67.33
2018-12-29T11:04:36.804Z,70.87
2018-12-29T11:07:05.267Z,64.47
2018-12-29T11:09:33.687Z,61.47
2018-12-29T11:12:02.113Z,66.50
2018-12-29T11:14:30.570Z,59.00
2018-12-29T11:16:59.005Z,63.53
2018-12-29T11:19:27.418Z,57.53
2018-12-29T11:21:55.822Z,37.00
2018-12-29T11:24:24.237Z,52.30
2018-12-29T11:26:52.658Z,71.30
2018-12-29T11:29:21.075Z,56.20
2018-12-29T11:31:49.453Z,50.90
2018-12-29T11:34:17.881Z,24.77
2018-12-29T11:36:46.265Z,45.63
2018-12-29T11:39:14.674Z,61.03
2018-12-29T11:41:43.065Z,24.17
2018-12-29T11:44:11.490Z,68.60
2018-12-29T11:46:39.889Z,64.60
2018-12-29T11:49:08.351Z,62.27
2018-12-29T11:51:36.731Z,63.93
2018-12-29T11:54:05.198Z,61.57
2018-12-29T11:56:33.589Z,55.77
2018-12-29T11:59:01.989Z,62.00
2018-12-29T12:01:30.368Z,62.40
2018-12-29T12:03:58.811Z,67.00
2018-12-29T12:06:27.178Z,60.73
2018-12-29T12:08:55.592Z,64.70
2018-12-29T12:11:23.979Z,55.87
2018-12-29T12:13:52.408Z,51.40
2018-12-29T12:16:20.800Z,70.00
2018-12-29T12:18:49.206Z,66.57
2018-12-29T12:21:17.600Z,59.53
2018-12-29T12:23:46.004Z,60.87
2018-12-29T12:26:14.418Z,78.63
2018-12-29T12:28:42.779Z,53.03
2018-12-29T12:31:11.228Z,74.33
2018-12-29T12:33:39.600Z,70.20
2018-12-29T12:36:08.018Z,50.93
2018-12-29T12:38:36.430Z,77.20
2018-12-29T12:41:04.859Z,97.43
2018-12-29T12:43:33.242Z,65.97
2018-12-29T12:46:01.972Z,73.57
2018-12-29T12:48:30.396Z,81.03
2018-12-29T12:50:59.185Z,75.83
2018-12-29T12:53:27.675Z,86.63
2018-12-29T12:55:56.086Z,87.63
2018-12-29T12:58:25.287Z,94.93
2018-12-29T13:00:53.914Z,77.97
2018-12-29T13:03:22.613Z,70.30
2018-12-29T13:05:51.318Z,68.77
2018-12-29T13:08:19.726Z,56.03
2018-12-29T13:10:48.147Z,51.93
2018-12-29T13:13:16.508Z,76.63
2018-12-29T13:15:44.929Z,74.33
2018-12-29T13:18:13.618Z,88.53
2018-12-29T13:20:42.034Z,71.97
2018-12-29T13:23:10.442Z,71.70
2018-12-29T13:25:38.848Z,73.73
2018-12-29T13:28:07.247Z,79.90
2018-12-29T13:30:35.939Z,74.97
2018-12-29T13:33:04.327Z,77.50
2018-12-29T13:35:32.733Z,66.60
2018-12-29T13:38:01.125Z,74.13
2018-12-29T13:40:29.501Z,58.97
2018-12-29T13:42:58.326Z,77.00
2018-12-29T13:45:26.702Z,79.93
2018-12-29T13:47:55.117Z,64.50
2018-12-29T13:50:23.491Z,57.93
2018-12-29T13:52:51.913Z,76.77
2018-12-29T13:55:20.694Z,78.67
2018-12-29T13:57:49.117Z,65.47
2018-12-29T14:00:17.487Z,72.97
2018-12-29T14:02:45.884Z,84.13
2018-12-29T14:05:14.278Z,83.60
2018-12-29T14:07:42.888Z,66.10
2018-12-29T14:10:11.274Z,74.43
2018-12-29T14:12:39.677Z,108.27
2018-12-29T14:15:08.049Z,121.67
2018-12-29T14:17:36.456Z,89.93
2018-12-29T14:20:05.873Z,55.77
2018-12-29T14:22:34.293Z,68.73
2018-12-29T14:25:02.684Z,101.60
2018-12-29T14:27:31.093Z,67.37
2018-12-29T14:29:59.480Z,61.37
2018-12-29T14:32:27.898Z,63.27
2018-12-29T14:34:56.323Z,76.80
2018-12-29T14:37:24.692Z,63.63
2018-12-29T14:39:53.073Z,62.37
2018-12-29T14:42:21.504Z,53.83
2018-12-29T14:44:49.966Z,68.37
2018-12-29T14:47:18.407Z,61.80
2018-12-29T14:49:46.785Z,69.90
2018-12-29T14:52:15.182Z,69.20
2018-12-29T14:54:43.571Z,68.43
2018-12-29T14:57:11.974Z,69.10
2018-12-29T14:59:40.344Z,65.10
2018-12-29T15:02:08.755Z,69.67
2018-12-29T15:04:37.149Z,70.30
2018-12-29T15:07:05.550Z,71.17
2018-12-29T15:09:33.937Z,65.83
2018-12-29T15:12:02.327Z,73.80
2018-12-29T15:14:30.734Z,57.00
2018-12-29T15:16:59.125Z,66.10
2018-12-29T15:19:27.534Z,61.33
2018-12-29T15:21:55.919Z,62.37
2018-12-29T15:24:24.331Z,68.80
2018-12-29T15:26:52.705Z,56.03
2018-12-29T15:29:21.768Z,61.63
2018-12-29T15:31:50.149Z,61.90
2018-12-29T15:34:18.584Z,40.53
2018-12-29T15:36:46.965Z,65.70
2018-12-29T15:39:15.377Z,57.00
2018-12-29T15:41:43.790Z,67.40
2018-12-29T15:44:12.281Z,124.70
2018-12-29T15:46:40.692Z,87.47
2018-12-29T15:49:09.134Z,69.47
2018-12-29T15:51:37.543Z,79.90
2018-12-29T15:54:05.957Z,58.20
2018-12-29T15:56:34.678Z,51.97
2018-12-29T15:59:03.085Z,56.67
2018-12-29T16:01:31.467Z,52.63
2018-12-29T16:03:59.964Z,50.10
2018-12-29T16:06:28.358Z,53.43
2018-12-29T16:08:56.808Z,64.10
2018-12-29T16:11:26.221Z,56.13
2018-12-29T16:13:55.688Z,55.63
2018-12-29T16:16:24.099Z,58.37
2018-12-29T16:18:58.775Z,57.63
2018-12-29T16:21:25.510Z,54.07
2018-12-29T16:23:53.968Z,48.97
2018-12-29T16:26:22.367Z,66.53
2018-12-29T16:28:50.748Z,54.17
2018-12-29T16:31:19.197Z,55.10
2018-12-29T16:33:53.738Z,54.07
2018-12-29T16:36:17.641Z,61.33
2018-12-29T16:38:46.020Z,52.40
2018-12-29T16:41:14.437Z,49.63
2018-12-29T16:43:42.855Z,59.67
2018-12-29T16:46:11.260Z,62.10
2018-12-29T16:48:39.706Z,60.27
2018-12-29T16:51:08.110Z,55.17
2018-12-29T16:53:36.509Z,56.63
2018-12-29T16:56:04.922Z,70.10
2018-12-29T16:58:33.296Z,73.70
2018-12-29T17:01:01.729Z,70.17
2018-12-29T17:03:30.113Z,60.90
2018-12-29T17:05:58.513Z,72.80
2018-12-29T17:08:27.264Z,57.50
2018-12-29T17:10:55.731Z,50.53
2018-12-29T17:13:24.121Z,49.83
2018-12-29T17:15:52.552Z,42.93
2018-12-29T17:18:22.676Z,51.37
2018-12-29T17:20:51.160Z,52.67
2018-12-29T17:23:19.533Z,56.63
2018-12-29T17:25:47.995Z,51.27
2018-12-29T17:28:16.387Z,52.57
2018-12-29T17:30:44.806Z,47.50
2018-12-29T17:33:13.187Z,44.83
2018-12-29T17:35:41.577Z,51.00
2018-12-29T17:38:10.373Z,44.07
2018-12-29T17:40:38.864Z,44.80
2018-12-29T17:43:07.276Z,53.70
2018-12-29T17:45:35.665Z,50.90
2018-12-29T17:48:04.081Z,75.43
2018-12-29T17:50:32.931Z,53.07
2018-12-29T17:53:01.355Z,52.97
2018-12-29T17:55:29.714Z,48.07
2018-12-29T17:57:59.812Z,54.27
2018-12-29T18:00:28.173Z,53.77
2018-12-29T18:02:56.560Z,53.00
2018-12-29T18:05:24.944Z,54.97
2018-12-29T18:07:53.372Z,47.60
2018-12-29T18:10:21.932Z,52.13
2018-12-29T18:12:50.377Z,49.30
2018-12-29T18:15:18.755Z,55.67
2018-12-29T18:17:47.579Z,54.33
2018-12-29T18:20:15.980Z,56.77
2018-12-29T18:22:44.398Z,40.23
2018-12-29T18:25:12.791Z,47.03
2018-12-29T18:27:41.618Z,54.93
2018-12-29T18:30:10.024Z,46.83
2018-12-29T18:32:38.542Z,47.57
2018-12-29T18:35:06.909Z,43.30
2018-12-29T18:37:35.331Z,56.67
2018-12-29T18:40:04.948Z,50.97
2018-12-29T18:42:33.357Z,49.93
2018-12-29T18:45:01.755Z,46.40
2018-12-29T18:47:30.195Z,55.60
2018-12-29T18:49:58.606Z,54.47
2018-12-29T18:52:27.355Z,24.27
2018-12-29T18:54:55.723Z,45.57
2018-12-29T18:57:24.146Z,46.97
2018-12-29T18:59:52.556Z,50.83
2018-12-29T19:02:20.971Z,54.30
2018-12-29T19:04:49.365Z,56.83
2018-12-29T19:07:18.141Z,39.63
2018-12-29T19:09:46.558Z,44.77
2018-12-29T19:12:14.988Z,51.10
2018-12-29T19:14:43.389Z,47.37
2018-12-29T19:17:11.770Z,54.23
2018-12-29T19:19:46.318Z,48.83
2018-12-29T19:22:10.714Z,44.60
2018-12-29T19:24:39.121Z,56.73
2018-12-29T19:27:07.483Z,57.00
2018-12-29T19:29:36.275Z,30.37
2018-12-29T19:32:04.886Z,53.43
2018-12-29T19:34:33.796Z,65.50
2018-12-29T19:37:02.615Z,36.87
2018-12-29T19:39:33.863Z,56.97
2018-12-29T19:42:02.285Z,43.27
2018-12-29T19:44:31.085Z,53.13
2018-12-29T19:46:59.477Z,55.80
2018-12-29T19:49:28.289Z,52.40
2018-12-29T19:51:56.690Z,37.07
2018-12-29T19:54:25.319Z,53.40
2018-12-29T19:56:54.160Z,54.97
2018-12-29T19:59:22.661Z,57.60
2018-12-29T20:01:51.029Z,53.40
2018-12-29T20:04:19.821Z,39.13
2018-12-29T20:06:48.432Z,49.60
2018-12-29T20:09:16.862Z,59.50
2018-12-29T20:11:45.823Z,49.77
2018-12-29T20:14:14.643Z,48.53
2018-12-29T20:16:43.062Z,49.23
2018-12-29T20:19:11.497Z,55.40
2018-12-29T20:21:39.885Z,50.33
2018-12-29T20:24:08.310Z,51.33
2018-12-29T20:26:38.178Z,47.70
2018-12-29T20:29:06.708Z,50.30
2018-12-29T20:31:35.150Z,47.93
2018-12-29T20:34:03.570Z,53.00
2018-12-29T20:36:31.997Z,57.27
2018-12-29T20:39:00.402Z,41.63
2018-12-29T20:41:29.710Z,65.03
2018-12-29T20:43:58.092Z,44.70
2018-12-29T20:46:26.523Z,54.53
2018-12-29T20:48:54.924Z,53.17
2018-12-29T20:51:23.355Z,61.07
2018-12-29T20:53:51.861Z,71.50
2018-12-29T20:56:20.293Z,64.83
2018-12-29T20:58:48.694Z,66.50
2018-12-29T21:01:17.117Z,47.33
2018-12-29T21:03:45.534Z,54.47
2018-12-29T21:06:13.935Z,65.90
2018-12-29T21:08:42.339Z,66.37
2018-12-29T21:11:10.798Z,69.40
2018-12-29T21:13:39.198Z,42.10
2018-12-29T21:16:07.628Z,64.30
2018-12-29T21:18:36.033Z,63.43
2018-12-29T21:21:04.904Z,70.37
2018-12-29T21:23:33.329Z,44.73
2018-12-29T21:26:01.742Z,72.30
2018-12-29T21:28:30.181Z,41.07
2018-12-29T21:30:58.586Z,44.87
2018-12-29T21:33:27.000Z,76.40
2018-12-29T21:35:55.499Z,77.87
2018-12-29T21:38:23.925Z,52.93
2018-12-29T21:40:52.350Z,45.40
2018-12-29T21:43:20.773Z,93.07
2018-12-29T21:45:49.174Z,70.70
2018-12-29T21:48:17.594Z,46.17
2018-12-29T21:50:45.994Z,53.73
2018-12-29T21:53:14.456Z,74.23
2018-12-29T21:55:43.371Z,65.53
2018-12-29T21:58:11.981Z,64.17
2018-12-29T22:00:40.377Z,80.90
2018-12-29T22:03:09.301Z,84.33
2018-12-29T22:05:37.739Z,69.67
2018-12-29T22:08:06.162Z,75.33
2018-12-29T22:10:34.551Z,33.70
2018-12-29T22:13:03.003Z,38.10
2018-12-29T22:15:31.501Z,75.50
2018-12-29T22:17:59.935Z,43.17
2018-12-29T22:20:33.206Z,66.13
2018-12-29T22:22:58.403Z,66.63
2018-12-29T22:25:26.782Z,74.13
2018-12-29T22:27:55.244Z,77.20
2018-12-29T22:30:23.995Z,62.50
2018-12-29T22:32:52.428Z,41.43
2018-12-29T22:35:20.788Z,51.20
2018-12-29T22:37:49.169Z,75.23
2018-12-29T22:40:17.570Z,69.13
2018-12-29T22:42:45.988Z,85.17
2018-12-29T22:45:14.370Z,69.83
2018-12-29T22:47:42.744Z,63.43
2018-12-29T22:50:11.166Z,58.40
2018-12-29T22:52:39.553Z,86.03
2018-12-29T22:55:08.054Z,78.67
2018-12-29T22:57:36.773Z,86.20
2018-12-29T23:00:08.698Z,75.30
2018-12-29T23:02:37.065Z,72.80
2018-12-29T23:05:05.535Z,43.10
2018-12-29T23:07:33.912Z,84.23
2018-12-29T23:10:02.327Z,80.30
2018-12-29T23:12:30.705Z,98.37
2018-12-29T23:14:59.524Z,56.33
2018-12-29T23:17:27.903Z,82.43
2018-12-29T23:19:56.296Z,62.43
2018-12-29T23:22:25.104Z,62.20
2018-12-29T23:24:53.486Z,35.20
2018-12-29T23:27:21.890Z,58.10
2018-12-29T23:29:50.289Z,80.77
2018-12-29T23:32:18.734Z,67.87
2018-12-29T23:34:47.072Z,54.37
2018-12-29T23:37:15.491Z,60.50
2018-12-29T23:39:43.884Z,52.23
2018-12-29T23:42:12.293Z,81.47
2018-12-29T23:44:40.701Z,56.07
2018-12-29T23:47:09.121Z,76.27
2018-12-29T23:49:37.543Z,67.50
2018-12-29T23:52:06.374Z,64.33
2018-12-29T23:54:34.767Z,42.90
2018-12-29T23:57:03.217Z,57.17
2018-12-29T23:59:31.605Z,29.33
